Flight Track Log - Related Links

Times and Time Zones

All times are in EDT time to prevent confusion due to time zone crossing. See the UAL4679 flight status page for this flight to view local times or setup timezone preferences in your user account.

Time Position Orientation Groundspeed Altitude Reporting Facility
EDT Latitude Longitude Course Direction KTS MPH feet Rate Location/Type
Sat 12:08:18 PM 40.7333 -74.1167 229° Southwest 188 216 2,700  Level New York TRACON
Sat 12:09:54 PM 40.7325 -74.2025 269° West 155 178 5,700 2,052 Climbing New York Center
Sat 12:10:00 PM 40.2906 -74.1532 194° South  Level FlightAware Approximate
Sat 12:10:53 PM 40.6694 -74.2239 194° South 175 201 8,000  Level New York Center
Sat 12:11:00 PM 40.1858 -74.1881 194° South  Level FlightAware Approximate
Sat 12:11:53 PM 40.6214 -74.3036 232° Southwest 238 274 10,500  Level New York Center
Sat 12:12:00 PM 40.0812 -74.2174 194° South  Level FlightAware Approximate
Sat 12:12:54 PM 40.5817 -74.3753 234° Southwest 269 310 11,800  Level New York Center
Sat 12:13:00 PM 39.9805 -74.2543 229° Southwest  Level FlightAware Approximate
Sat 12:13:55 PM 40.5044 -74.3794 182° South 269 310 13,200  Level New York Center
Sat 12:14:53 PM 40.4092 -74.3581 170° South 297 342 13,900 763 Climbing New York Center
Sat 12:15:53 PM 40.3225 -74.3344 168° South 345 397 14,700 1,018 Climbing New York Center
Sat 12:17:38 PM 40.1333 -74.2836 168° South 373 429 16,700 1,120 Climbing Washington Center
Sat 12:18:39 PM 40.0336 -74.3072 190° South 366 421 17,800 893 Climbing Washington Center
Sat 12:19:39 PM 39.9514 -74.3981 220° Southwest 358 412 18,500 814 Climbing Washington Center
Sat 12:20:37 PM 39.8647 -74.4942 220° Southwest 383 441 19,400 958 Climbing Washington Center
Sat 12:21:38 PM 39.7761 -74.5925 220° Southwest 409 471 20,400 992 Climbing Washington Center
Sat 12:22:38 PM 39.6872 -74.6936 221° Southwest 422 486 21,400 992 Climbing Washington Center
Sat 12:23:39 PM 39.5942 -74.7917 219° Southwest 428 493 22,400 908 Climbing Washington Center
Sat 12:24:37 PM 39.5133 -74.8786 220° Southwest 433 498 23,200 908 Climbing Washington Center
Sat 12:25:38 PM 39.4203 -74.9817 221° Southwest 428 493 24,200 836 Climbing Washington Center
Sat 12:26:39 PM 39.3289 -75.0819 220° Southwest 428 493 24,900 857 Climbing Washington Center
Sat 12:27:37 PM 39.2189 -75.1494 205° Southwest 428 493 25,900 1,068 Climbing Washington Center
Sat 12:28:37 PM 39.1044 -75.1983 198° South 428 493 27,000 984 Climbing Washington Center
Sat 12:29:39 PM 38.9919 -75.2444 198° South 428 493 27,900 689 Climbing Washington Center
Sat 12:30:39 PM 38.8817 -75.2903 198° South 428 493 28,400 864 Climbing Washington Center
Sat 12:31:37 PM 38.7711 -75.3333 197° South 423 487 29,600 1,169 Climbing Washington Center
Sat 12:32:37 PM 38.6628 -75.3817 199° South 418 481 30,700 1,041 Climbing Washington Center
Sat 12:33:38 PM 38.5544 -75.4272 198° South 418 481 31,700 639 Climbing Washington Center
Sat 12:34:39 PM 38.4419 -75.4672 196° South 418 481 32,000 149 Climbing Washington Center
Sat 12:35:39 PM 38.3294 -75.5228 201° Southwest 428 493 32,000  Level Washington Center
Sat 12:36:37 PM 38.2272 -75.6208 217° Southwest 433 498 32,000 559 Level Washington Center
Sat 12:37:37 PM 38.1292 -75.7158 217° Southwest 448 516 33,100 992 Climbing Washington Center
Sat 12:38:38 PM 38.0228 -75.8183 217° Southwest 448 516 34,000 893 Climbing Washington Center
Sat 12:39:38 PM 37.9331 -75.8972 215° Southwest 448 516 34,900 942 Climbing Washington Center
Sat 12:40:39 PM 37.8408 -75.9861 217° Southwest 438 504 35,900 545 Climbing Washington Center
Sat 12:41:39 PM 37.7406 -76.0856 218° Southwest 433 498 36,000 51 Climbing Washington Center
Sat 12:42:37 PM 37.6631 -76.1558 216° Southwest 428 493 36,000  Level Washington Center
Sat 12:43:37 PM 37.5561 -76.2467 214° Southwest 428 493 36,000  Level Washington Center
Sat 12:44:39 PM 37.4617 -76.3322 216° Southwest 428 493 36,000  Level Washington Center
Sat 12:45:39 PM 37.3797 -76.4361 225° Southwest 423 487 36,000  Level Washington Center
Sat 12:46:37 PM 37.2997 -76.5422 227° Southwest 423 487 36,000  Level Washington Center
Sat 12:47:38 PM 37.2111 -76.6456 223° Southwest 428 493 36,000  Level Washington Center
Sat 12:48:38 PM 37.1125 -76.7300 214° Southwest 433 498 36,000  Level Washington Center
Sat 12:49:39 PM 37.0136 -76.8169 215° Southwest 438 504 36,000  Level Washington Center
Sat 12:50:37 PM 36.9167 -76.9011 215° Southwest 432 497 36,000  Level Washington Center
Sat 12:51:38 PM 36.8197 -76.9853 215° Southwest 432 497 36,000  Level Washington Center
Sat 12:52:39 PM 36.7228 -77.0717 216° Southwest 432 497 36,000  Level Washington Center
Sat 12:53:37 PM 36.6236 -77.1550 214° Southwest 432 497 36,000  Level Washington Center
Sat 12:54:38 PM 36.5286 -77.2358 214° Southwest 432 497 36,000  Level Washington Center
Sat 12:55:38 PM 36.4314 -77.3217 215° Southwest 432 497 36,000  Level Washington Center
Sat 12:56:39 PM 36.3300 -77.4069 214° Southwest 432 497 36,000  Level Washington Center
Sat 12:57:39 PM 36.2286 -77.4947 215° Southwest 423 487 36,000  Level Washington Center
Sat 12:58:37 PM 36.1333 -77.5775 215° Southwest 418 481 36,000  Level Washington Center
Sat 12:59:37 PM 36.0381 -77.6572 214° Southwest 423 487 36,000  Level Washington Center
Sat 01:00:38 PM 35.9408 -77.7342 213° Southwest 423 487 36,000  Level Washington Center
Sat 01:01:38 PM 35.8433 -77.8111 213° Southwest 423 487 36,000  Level Washington Center
Sat 01:02:39 PM 35.7439 -77.8900 213° Southwest 423 487 36,000  Level Washington Center
Sat 01:03:39 PM 35.6422 -77.9664 211° Southwest 423 487 36,000  Level Washington Center
Sat 01:04:37 PM 35.5403 -78.0478 213° Southwest 428 493 36,000  Level Washington Center
Sat 01:05:37 PM 35.4450 -78.1211 212° Southwest 423 487 36,000  Level Washington Center
Sat 01:06:37 PM 35.3664 -78.1825 212° Southwest 423 487 36,000  Level Washington Center
Sat 01:07:39 PM 35.2561 -78.2653 212° Southwest 423 487 36,000  Level Washington Center
Sat 01:08:39 PM 35.1583 -78.3433 213° Southwest 428 493 36,000  Level Washington Center
Sat 01:09:38 PM 35.0606 -78.4186 212° Southwest 423 487 36,000  Level Washington Center
Sat 01:10:38 PM 34.9650 -78.4914 212° Southwest 418 481 36,000  Level Washington Center
Sat 01:11:39 PM 34.8694 -78.5639 212° Southwest 418 481 36,000  Level Washington Center
Sat 01:13:43 PM 34.6603 -78.7228 212° Southwest 409 471 36,000  Level Jacksonville Center
Sat 01:14:43 PM 34.5689 -78.7928 212° Southwest 398 458 36,000  Level Jacksonville Center
Sat 01:15:43 PM 34.4856 -78.8647 215° Southwest 398 458 36,000  Level Jacksonville Center
Sat 01:16:43 PM 34.3897 -78.9372 212° Southwest 404 465 36,000  Level Jacksonville Center
Sat 01:17:43 PM 34.2939 -79.0069 211° Southwest 404 465 36,000  Level Jacksonville Center
Sat 01:18:43 PM 34.1981 -79.0789 212° Southwest 409 471 36,000  Level Jacksonville Center
Sat 01:19:43 PM 34.1022 -79.1508 212° Southwest 404 465 36,000  Level Jacksonville Center
Sat 01:20:43 PM 34.0083 -79.2200 211° Southwest 399 459 36,000  Level Jacksonville Center
Sat 01:21:43 PM 33.9186 -79.2889 213° Southwest 394 453 36,000  Level Jacksonville Center
Sat 01:22:43 PM 33.8264 -79.3553 211° Southwest 394 453 36,000  Level Jacksonville Center
Sat 01:23:43 PM 33.7344 -79.4214 211° Southwest 394 453 36,000  Level Jacksonville Center
Sat 01:24:43 PM 33.6364 -79.4975 213° Southwest 394 453 36,000  Level Jacksonville Center
Sat 01:25:43 PM 33.5419 -79.5633 210° Southwest 394 453 36,000  Level Jacksonville Center
Sat 01:26:43 PM 33.4561 -79.6264 212° Southwest 399 459 36,000  Level Jacksonville Center
Sat 01:27:43 PM 33.3597 -79.6969 211° Southwest 399 459 36,000  Level Jacksonville Center
Sat 01:28:43 PM 33.2636 -79.7675 212° Southwest 399 459 36,000  Level Jacksonville Center
Sat 01:29:43 PM 33.1631 -79.8406 211° Southwest 404 465 36,000  Level Jacksonville Center
Sat 01:30:43 PM 33.0686 -79.9106 212° Southwest 404 465 36,000 -50 Level Jacksonville Center
Sat 01:31:43 PM 32.9700 -79.9783 210° Southwest 409 471 35,900 -550 Descending Jacksonville Center
Sat 01:32:43 PM 32.8717 -80.0533 213° Southwest 415 478 34,900 -1,050 Descending Jacksonville Center
Sat 01:33:43 PM 32.7753 -80.1303 214° Southwest 420 483 33,800 -1,100 Descending Jacksonville Center
Sat 01:34:43 PM 32.6850 -80.2022 214° Southwest 414 476 32,700 -1,200 Descending Jacksonville Center
Sat 01:35:43 PM 32.5903 -80.2742 213° Southwest 409 471 31,400 -1,200 Descending Jacksonville Center
Sat 01:36:43 PM 32.4917 -80.3508 213° Southwest 409 471 30,300 -1,300 Descending Jacksonville Center
Sat 01:37:43 PM 32.3950 -80.4250 213° Southwest 414 476 28,800 -1,650 Descending Jacksonville Center
Sat 01:38:43 PM 32.2922 -80.5039 213° Southwest 420 483 27,000 -1,700 Descending Jacksonville Center
Sat 01:39:43 PM 32.1956 -80.5800 214° Southwest 427 491 25,400 -1,400 Descending Jacksonville Center
Sat 01:40:43 PM 32.0906 -80.6636 214° Southwest 427 491 24,200 -1,400 Descending Jacksonville Center
Sat 01:41:43 PM 32.0042 -80.7317 214° Southwest 427 491 22,600 -1,850 Descending Jacksonville Center
Sat 01:42:43 PM 31.8989 -80.8100 212° Southwest 416 479 20,500 -1,950 Descending Jacksonville Center
Sat 01:43:43 PM 31.8039 -80.8783 211° Southwest 408 470 18,700 -1,800 Descending Jacksonville Center
Sat 01:44:43 PM 31.7214 -80.9436 214° Southwest 402 463 16,900 -1,884 Descending Jacksonville Center
Sat 01:45:44 PM 31.6264 -81.0164 213° Southwest 391 450 14,900 -1,400 Descending Jacksonville Center
Sat 01:46:43 PM 31.5419 -81.0789 212° Southwest 378 435 14,100 -807 Descending Jacksonville Center
Sat 01:47:43 PM 31.4653 -81.1339 211° Southwest 364 419 13,300 -850 Descending Jacksonville Center
Sat 01:48:43 PM 31.3828 -81.1964 213° Southwest 336 387 12,400 -700 Descending Jacksonville Center
Sat 01:49:43 PM 31.3167 -81.2511 215° Southwest 336 387 11,900 -447 Descending Jacksonville Center
Sat 01:50:17 PM 31.2669 -81.2836 209° Southwest 305 351 11,700 -700 Descending Jacksonville Center
Sat 01:50:43 PM 31.2442 -81.3058 220° Southwest 325 374 11,200 -1,254 Descending Jacksonville Center
Sat 01:51:24 PM 31.1842 -81.3433 208° Southwest 307 353 10,300 -1,100 Descending Jacksonville Center
Sat 01:51:43 PM 31.1697 -81.3533 211° Southwest 319 367 10,100 -300 Descending Jacksonville Center
Sat 01:52:24 PM 31.1161 -81.4075 221° Southwest 315 362 10,000 -100 Descending Jacksonville Center
Sat 01:52:43 PM 31.1056 -81.4172 218° Southwest 313 360 10,000  Level Jacksonville Center
Sat 01:53:25 PM 31.0500 -81.4692 219° Southwest 308 354 10,000  Level Jacksonville Center
Sat 01:53:43 PM 31.0353 -81.4814 215° Southwest 313 360 10,000  Level Jacksonville Center
Sat 01:54:20 PM 30.9817 -81.5283 217° Southwest 329 379 10,000  Level Jacksonville Center
Sat 01:54:43 PM 30.9631 -81.5481 222° Southwest 323 372 10,000 -300 Level Jacksonville Center
Sat 01:55:20 PM 30.9156 -81.5897 217° Southwest 274 315 9,700 -700 Descending Jacksonville Center
Sat 01:55:43 PM 30.8989 -81.6022 213° Southwest 318 366 9,300 -1,770 Descending Jacksonville Center
Sat 01:56:21 PM 30.8575 -81.6414 219° Southwest 246 283 7,900 -1,900 Descending Jacksonville Center
Sat 01:56:43 PM 30.8411 -81.6586 222° Southwest 295 339 7,400 -2,066 Descending Jacksonville Center
Sat 01:57:22 PM 30.7975 -81.6956 216° Southwest 267 307 5,800 -2,000 Descending Jacksonville Center
Sat 01:57:43 PM 30.7831 -81.7100 221° Southwest 283 326 5,400 -1,967 Descending Jacksonville Center
Sat 01:58:23 PM 30.7375 -81.7517 218° Southwest 266 306 3,800 -2,000 Descending Jacksonville Center
Sat 01:58:43 PM 30.7231 -81.7617 211° Southwest 273 314 3,400 -1,343 Descending Jacksonville Center
Sat 01:59:30 PM 30.6733 -81.8081 219° Southwest 262 302 2,300 -778 Descending Jacksonville Center
Sat 02:00:31 PM 30.6172 -81.8378 205° Southwest 209 241 2,000 -157 Descending Jacksonville Center
Sat 02:01:25 PM 30.5753 -81.8164 156° South 160 184 2,000  Level Jacksonville Center

Login

Don't have an account? Register now (free) for customized features, flight alerts, and more!